sensor_id;sensor_type;location;lat;lon;timestamp;temperature;humidity
76787;DHT22;65739;51.482;5.702;2023-03-16T00:00:31;4.20;99.90
76787;DHT22;65739;51.482;5.702;2023-03-16T00:03:00;4.20;99.90
76787;DHT22;65739;51.482;5.702;2023-03-16T00:05:32;4.20;99.90
76787;DHT22;65739;51.482;5.702;2023-03-16T00:08:10;4.20;99.90
76787;DHT22;65739;51.482;5.702;2023-03-16T00:10:35;4.20;99.90
76787;DHT22;65739;51.482;5.702;2023-03-16T00:13:01;4.20;99.90
76787;DHT22;65739;51.482;5.702;2023-03-16T00:15:28;4.30;99.90
76787;DHT22;65739;51.482;5.702;2023-03-16T00:18:03;4.30;99.90
76787;DHT22;65739;51.482;5.702;2023-03-16T00:20:29;4.30;99.90
76787;DHT22;65739;51.482;5.702;2023-03-16T00:22:55;4.30;99.90
76787;DHT22;65739;51.482;5.702;2023-03-16T00:25:21;4.30;99.90
76787;DHT22;65739;51.482;5.702;2023-03-16T00:27:51;4.40;99.90
76787;DHT22;65739;51.482;5.702;2023-03-16T00:30:17;4.30;99.90
76787;DHT22;65739;51.482;5.702;2023-03-16T00:32:52;4.40;99.90
76787;DHT22;65739;51.482;5.702;2023-03-16T00:35:18;4.40;99.90
76787;DHT22;65739;51.482;5.702;2023-03-16T00:37:44;4.40;99.90
76787;DHT22;65739;51.482;5.702;2023-03-16T00:40:10;4.40;99.90
76787;DHT22;65739;51.482;5.702;2023-03-16T00:42:39;4.40;99.90
76787;DHT22;65739;51.482;5.702;2023-03-16T00:45:06;4.50;99.90
76787;DHT22;65739;51.482;5.702;2023-03-16T00:47:33;4.50;99.90
76787;DHT22;65739;51.482;5.702;2023-03-16T00:50:00;4.50;99.90
76787;DHT22;65739;51.482;5.702;2023-03-16T00:52:27;4.50;99.90
76787;DHT22;65739;51.482;5.702;2023-03-16T00:54:59;4.40;99.90
76787;DHT22;65739;51.482;5.702;2023-03-16T00:57:27;4.40;99.90
76787;DHT22;65739;51.482;5.702;2023-03-16T00:59:54;4.40;99.90
76787;DHT22;65739;51.482;5.702;2023-03-16T01:02:23;4.40;99.90
76787;DHT22;65739;51.482;5.702;2023-03-16T01:04:53;4.50;99.90
76787;DHT22;65739;51.482;5.702;2023-03-16T01:07:19;4.40;99.90
76787;DHT22;65739;51.482;5.702;2023-03-16T01:09:56;4.40;99.90
76787;DHT22;65739;51.482;5.702;2023-03-16T01:12:22;4.40;99.90
76787;DHT22;65739;51.482;5.702;2023-03-16T01:14:52;4.40;99.90
76787;DHT22;65739;51.482;5.702;2023-03-16T01:17:18;4.40;99.90
76787;DHT22;65739;51.482;5.702;2023-03-16T01:19:50;4.40;99.90
76787;DHT22;65739;51.482;5.702;2023-03-16T01:22:19;4.40;99.90
76787;DHT22;65739;51.482;5.702;2023-03-16T01:24:46;4.40;99.90
76787;DHT22;65739;51.482;5.702;2023-03-16T01:27:14;4.40;99.90
76787;DHT22;65739;51.482;5.702;2023-03-16T01:29:43;4.40;99.90
76787;DHT22;65739;51.482;5.702;2023-03-16T01:32:21;4.40;99.90
76787;DHT22;65739;51.482;5.702;2023-03-16T01:34:50;4.40;99.90
76787;DHT22;65739;51.482;5.702;2023-03-16T01:37:21;4.30;99.90
76787;DHT22;65739;51.482;5.702;2023-03-16T01:39:50;4.30;99.90
76787;DHT22;65739;51.482;5.702;2023-03-16T01:42:15;4.30;99.90
76787;DHT22;65739;51.482;5.702;2023-03-16T01:44:54;4.30;99.90
76787;DHT22;65739;51.482;5.702;2023-03-16T01:47:21;4.30;99.90
76787;DHT22;65739;51.482;5.702;2023-03-16T01:49:49;4.30;99.90
76787;DHT22;65739;51.482;5.702;2023-03-16T01:52:27;4.30;99.90
76787;DHT22;65739;51.482;5.702;2023-03-16T01:54:59;4.20;99.90
76787;DHT22;65739;51.482;5.702;2023-03-16T01:57:27;4.20;99.90
76787;DHT22;65739;51.482;5.702;2023-03-16T02:00:09;4.20;99.90
76787;DHT22;65739;51.482;5.702;2023-03-16T02:02:42;4.20;99.90
76787;DHT22;65739;51.482;5.702;2023-03-16T02:05:42;4.20;99.90
76787;DHT22;65739;51.482;5.702;2023-03-16T02:08:12;4.20;99.90
76787;DHT22;65739;51.482;5.702;2023-03-16T02:10:39;4.20;99.90
76787;DHT22;65739;51.482;5.702;2023-03-16T02:13:06;4.20;99.90
76787;DHT22;65739;51.482;5.702;2023-03-16T02:15:32;4.20;99.90
76787;DHT22;65739;51.482;5.702;2023-03-16T02:18:00;4.30;99.90
76787;DHT22;65739;51.482;5.702;2023-03-16T02:23:06;4.30;99.90
76787;DHT22;65739;51.482;5.702;2023-03-16T02:28:36;4.40;99.90
76787;DHT22;65739;51.482;5.702;2023-03-16T02:31:13;4.40;99.90
76787;DHT22;65739;51.482;5.702;2023-03-16T02:33:40;4.40;99.90
76787;DHT22;65739;51.482;5.702;2023-03-16T02:36:17;4.40;99.90
76787;DHT22;65739;51.482;5.702;2023-03-16T02:38:43;4.50;99.90
76787;DHT22;65739;51.482;5.702;2023-03-16T02:41:15;4.50;99.90
76787;DHT22;65739;51.482;5.702;2023-03-16T02:43:54;4.50;99.90
76787;DHT22;65739;51.482;5.702;2023-03-16T02:46:22;4.50;99.90
76787;DHT22;65739;51.482;5.702;2023-03-16T02:49:24;4.50;99.90
76787;DHT22;65739;51.482;5.702;2023-03-16T02:51:50;4.40;99.90
76787;DHT22;65739;51.482;5.702;2023-03-16T02:54:17;4.40;99.90
76787;DHT22;65739;51.482;5.702;2023-03-16T02:56:43;4.40;99.90
76787;DHT22;65739;51.482;5.702;2023-03-16T02:59:09;4.40;99.90
76787;DHT22;65739;51.482;5.702;2023-03-16T03:01:38;4.40;99.90
76787;DHT22;65739;51.482;5.702;2023-03-16T03:04:04;4.30;99.90
76787;DHT22;65739;51.482;5.702;2023-03-16T03:06:30;4.40;99.90
76787;DHT22;65739;51.482;5.702;2023-03-16T03:08:57;4.30;99.90
76787;DHT22;65739;51.482;5.702;2023-03-16T03:11:27;4.40;99.90
76787;DHT22;65739;51.482;5.702;2023-03-16T03:13:53;4.30;99.90
76787;DHT22;65739;51.482;5.702;2023-03-16T03:16:19;4.40;99.90
76787;DHT22;65739;51.482;5.702;2023-03-16T03:18:54;4.40;99.90
76787;DHT22;65739;51.482;5.702;2023-03-16T03:21:20;4.40;99.90
76787;DHT22;65739;51.482;5.702;2023-03-16T03:23:46;4.40;99.90
76787;DHT22;65739;51.482;5.702;2023-03-16T03:26:13;4.40;99.90
76787;DHT22;65739;51.482;5.702;2023-03-16T03:28:42;4.40;99.90
76787;DHT22;65739;51.482;5.702;2023-03-16T03:31:14;4.40;99.90
76787;DHT22;65739;51.482;5.702;2023-03-16T03:33:40;4.50;99.90
76787;DHT22;65739;51.482;5.702;2023-03-16T03:36:09;4.40;99.90
76787;DHT22;65739;51.482;5.702;2023-03-16T03:38:38;4.50;99.90
76787;DHT22;65739;51.482;5.702;2023-03-16T03:41:07;4.50;99.90
76787;DHT22;65739;51.482;5.702;2023-03-16T03:43:43;4.50;99.90
76787;DHT22;65739;51.482;5.702;2023-03-16T03:46:08;4.50;99.90
76787;DHT22;65739;51.482;5.702;2023-03-16T03:48:38;4.50;99.90
76787;DHT22;65739;51.482;5.702;2023-03-16T03:51:03;4.50;99.90
76787;DHT22;65739;51.482;5.702;2023-03-16T03:53:41;4.50;99.90
76787;DHT22;65739;51.482;5.702;2023-03-16T03:56:07;4.50;99.90
76787;DHT22;65739;51.482;5.702;2023-03-16T03:58:33;4.50;99.90
76787;DHT22;65739;51.482;5.702;2023-03-16T04:01:04;4.40;99.90
76787;DHT22;65739;51.482;5.702;2023-03-16T04:03:36;4.40;99.90
76787;DHT22;65739;51.482;5.702;2023-03-16T04:06:04;4.40;99.90
76787;DHT22;65739;51.482;5.702;2023-03-16T04:08:32;4.40;99.90
76787;DHT22;65739;51.482;5.702;2023-03-16T04:11:01;4.40;99.90
76787;DHT22;65739;51.482;5.702;2023-03-16T04:13:27;4.40;99.90
76787;DHT22;65739;51.482;5.702;2023-03-16T04:15:59;4.40;99.90
76787;DHT22;65739;51.482;5.702;2023-03-16T04:18:37;4.40;99.90
76787;DHT22;65739;51.482;5.702;2023-03-16T04:21:08;4.40;99.90
76787;DHT22;65739;51.482;5.702;2023-03-16T04:23:37;4.50;99.90
76787;DHT22;65739;51.482;5.702;2023-03-16T04:26:06;4.40;99.90
76787;DHT22;65739;51.482;5.702;2023-03-16T04:28:35;4.40;99.90
76787;DHT22;65739;51.482;5.702;2023-03-16T04:31:06;4.50;99.90
76787;DHT22;65739;51.482;5.702;2023-03-16T04:33:36;4.50;99.90
76787;DHT22;65739;51.482;5.702;2023-03-16T04:36:03;4.50;99.90
76787;DHT22;65739;51.482;5.702;2023-03-16T04:38:37;4.50;99.90
76787;DHT22;65739;51.482;5.702;2023-03-16T04:41:04;4.50;99.90
76787;DHT22;65739;51.482;5.702;2023-03-16T04:43:37;4.50;99.90
76787;DHT22;65739;51.482;5.702;2023-03-16T04:46:03;4.60;99.90
76787;DHT22;65739;51.482;5.702;2023-03-16T04:48:31;4.60;99.90
76787;DHT22;65739;51.482;5.702;2023-03-16T04:51:35;4.60;99.90
76787;DHT22;65739;51.482;5.702;2023-03-16T04:54:12;4.60;99.90
76787;DHT22;65739;51.482;5.702;2023-03-16T04:56:47;4.60;99.90
76787;DHT22;65739;51.482;5.702;2023-03-16T04:59:20;4.60;99.90
76787;DHT22;65739;51.482;5.702;2023-03-16T05:01:49;4.60;99.90
76787;DHT22;65739;51.482;5.702;2023-03-16T05:05:00;4.60;99.90
76787;DHT22;65739;51.482;5.702;2023-03-16T05:08:17;4.60;99.90
76787;DHT22;65739;51.482;5.702;2023-03-16T05:11:05;4.60;99.90
76787;DHT22;65739;51.482;5.702;2023-03-16T05:13:31;4.70;99.90
76787;DHT22;65739;51.482;5.702;2023-03-16T05:15:57;4.90;99.90
76787;DHT22;65739;51.482;5.702;2023-03-16T05:18:26;4.80;99.90
76787;DHT22;65739;51.482;5.702;2023-03-16T05:20:53;4.80;99.90
76787;DHT22;65739;51.482;5.702;2023-03-16T05:23:24;4.80;99.90
76787;DHT22;65739;51.482;5.702;2023-03-16T05:25:50;4.80;99.90
76787;DHT22;65739;51.482;5.702;2023-03-16T05:28:16;4.80;99.90
76787;DHT22;65739;51.482;5.702;2023-03-16T05:30:49;4.80;99.90
76787;DHT22;65739;51.482;5.702;2023-03-16T05:33:16;4.80;99.90
76787;DHT22;65739;51.482;5.702;2023-03-16T05:35:42;4.80;99.90
76787;DHT22;65739;51.482;5.702;2023-03-16T05:38:07;4.80;99.90
76787;DHT22;65739;51.482;5.702;2023-03-16T05:40:36;4.90;99.90
76787;DHT22;65739;51.482;5.702;2023-03-16T05:43:02;4.90;99.90
76787;DHT22;65739;51.482;5.702;2023-03-16T05:45:29;4.90;99.90
76787;DHT22;65739;51.482;5.702;2023-03-16T05:47:55;4.90;99.90
76787;DHT22;65739;51.482;5.702;2023-03-16T05:50:24;5.00;99.90
76787;DHT22;65739;51.482;5.702;2023-03-16T05:52:51;5.00;99.90
76787;DHT22;65739;51.482;5.702;2023-03-16T05:55:17;5.10;99.90
76787;DHT22;65739;51.482;5.702;2023-03-16T05:57:43;5.00;99.90
76787;DHT22;65739;51.482;5.702;2023-03-16T06:00:19;5.00;99.90
76787;DHT22;65739;51.482;5.702;2023-03-16T06:02:49;5.10;99.90
76787;DHT22;65739;51.482;5.702;2023-03-16T06:05:26;5.10;99.90
76787;DHT22;65739;51.482;5.702;2023-03-16T06:07:56;5.10;99.90
76787;DHT22;65739;51.482;5.702;2023-03-16T06:10:22;5.20;99.90
76787;DHT22;65739;51.482;5.702;2023-03-16T06:12:50;5.10;99.90
76787;DHT22;65739;51.482;5.702;2023-03-16T06:15:17;5.20;99.90
76787;DHT22;65739;51.482;5.702;2023-03-16T06:17:43;5.20;99.90
76787;DHT22;65739;51.482;5.702;2023-03-16T06:20:11;5.20;99.90
76787;DHT22;65739;51.482;5.702;2023-03-16T06:22:42;5.20;99.90
76787;DHT22;65739;51.482;5.702;2023-03-16T06:25:11;5.20;99.90
76787;DHT22;65739;51.482;5.702;2023-03-16T06:27:40;5.30;99.90
76787;DHT22;65739;51.482;5.702;2023-03-16T06:30:08;5.30;99.90
76787;DHT22;65739;51.482;5.702;2023-03-16T06:32:34;5.30;99.90
76787;DHT22;65739;51.482;5.702;2023-03-16T06:35:01;5.40;99.90
76787;DHT22;65739;51.482;5.702;2023-03-16T06:37:28;5.40;99.90
76787;DHT22;65739;51.482;5.702;2023-03-16T06:39:54;5.40;99.90
76787;DHT22;65739;51.482;5.702;2023-03-16T06:42:23;5.40;99.90
76787;DHT22;65739;51.482;5.702;2023-03-16T06:45:12;5.50;99.90
76787;DHT22;65739;51.482;5.702;2023-03-16T06:47:42;5.50;99.90
76787;DHT22;65739;51.482;5.702;2023-03-16T06:50:09;5.50;99.90
76787;DHT22;65739;51.482;5.702;2023-03-16T06:52:36;5.60;99.90
76787;DHT22;65739;51.482;5.702;2023-03-16T06:55:02;5.60;99.90
76787;DHT22;65739;51.482;5.702;2023-03-16T06:57:28;5.60;99.90
76787;DHT22;65739;51.482;5.702;2023-03-16T06:59:54;5.70;99.90
76787;DHT22;65739;51.482;5.702;2023-03-16T07:02:20;5.60;99.90
76787;DHT22;65739;51.482;5.702;2023-03-16T07:04:50;5.70;99.90
76787;DHT22;65739;51.482;5.702;2023-03-16T07:07:16;5.60;99.90
76787;DHT22;65739;51.482;5.702;2023-03-16T07:09:47;5.70;99.90
76787;DHT22;65739;51.482;5.702;2023-03-16T07:12:22;5.70;99.90
76787;DHT22;65739;51.482;5.702;2023-03-16T07:14:48;5.80;99.90
76787;DHT22;65739;51.482;5.702;2023-03-16T07:17:13;5.80;99.90
76787;DHT22;65739;51.482;5.702;2023-03-16T07:19:41;5.90;99.90
76787;DHT22;65739;51.482;5.702;2023-03-16T07:22:10;6.00;99.90
76787;DHT22;65739;51.482;5.702;2023-03-16T07:24:43;6.00;99.90
76787;DHT22;65739;51.482;5.702;2023-03-16T07:27:24;6.00;99.90
76787;DHT22;65739;51.482;5.702;2023-03-16T07:29:50;6.10;99.90
76787;DHT22;65739;51.482;5.702;2023-03-16T07:32:17;6.10;99.90
76787;DHT22;65739;51.482;5.702;2023-03-16T07:34:49;6.10;99.90
76787;DHT22;65739;51.482;5.702;2023-03-16T07:37:18;6.10;99.90
76787;DHT22;65739;51.482;5.702;2023-03-16T07:39:47;6.20;99.90
76787;DHT22;65739;51.482;5.702;2023-03-16T07:42:25;6.20;99.90
76787;DHT22;65739;51.482;5.702;2023-03-16T07:44:56;6.30;99.90
76787;DHT22;65739;51.482;5.702;2023-03-16T07:47:25;6.40;99.90
76787;DHT22;65739;51.482;5.702;2023-03-16T07:49:51;6.40;99.90
76787;DHT22;65739;51.482;5.702;2023-03-16T07:52:20;6.30;99.90
76787;DHT22;65739;51.482;5.702;2023-03-16T07:55:04;6.30;99.90
76787;DHT22;65739;51.482;5.702;2023-03-16T07:57:30;6.30;99.90
76787;DHT22;65739;51.482;5.702;2023-03-16T08:00:05;6.30;99.90
76787;DHT22;65739;51.482;5.702;2023-03-16T08:02:35;6.30;99.90
76787;DHT22;65739;51.482;5.702;2023-03-16T08:05:04;6.30;99.90
76787;DHT22;65739;51.482;5.702;2023-03-16T08:07:30;6.40;99.90
76787;DHT22;65739;51.482;5.702;2023-03-16T08:09:56;6.50;99.90
76787;DHT22;65739;51.482;5.702;2023-03-16T08:12:22;6.50;99.90
76787;DHT22;65739;51.482;5.702;2023-03-16T08:14:48;6.50;99.90
76787;DHT22;65739;51.482;5.702;2023-03-16T08:17:16;6.60;99.90
76787;DHT22;65739;51.482;5.702;2023-03-16T08:19:42;6.70;99.90
76787;DHT22;65739;51.482;5.702;2023-03-16T08:22:08;6.80;99.90
76787;DHT22;65739;51.482;5.702;2023-03-16T08:25:01;6.80;99.90
76787;DHT22;65739;51.482;5.702;2023-03-16T08:27:33;7.00;99.90
76787;DHT22;65739;51.482;5.702;2023-03-16T08:29:59;7.00;99.90
76787;DHT22;65739;51.482;5.702;2023-03-16T08:32:30;7.20;99.90
76787;DHT22;65739;51.482;5.702;2023-03-16T08:34:56;7.30;99.90
76787;DHT22;65739;51.482;5.702;2023-03-16T08:37:25;7.30;99.90
76787;DHT22;65739;51.482;5.702;2023-03-16T08:39:52;7.50;99.90
76787;DHT22;65739;51.482;5.702;2023-03-16T08:42:19;7.40;99.90
76787;DHT22;65739;51.482;5.702;2023-03-16T08:44:45;7.50;99.90
76787;DHT22;65739;51.482;5.702;2023-03-16T08:47:12;7.60;99.90
76787;DHT22;65739;51.482;5.702;2023-03-16T08:49:39;7.60;99.90
76787;DHT22;65739;51.482;5.702;2023-03-16T08:52:06;7.80;99.90
76787;DHT22;65739;51.482;5.702;2023-03-16T08:54:34;7.70;99.90
76787;DHT22;65739;51.482;5.702;2023-03-16T08:57:00;7.90;99.90
76787;DHT22;65739;51.482;5.702;2023-03-16T08:59:25;8.00;99.90
76787;DHT22;65739;51.482;5.702;2023-03-16T09:01:51;8.10;99.90
76787;DHT22;65739;51.482;5.702;2023-03-16T09:04:17;8.10;99.90
76787;DHT22;65739;51.482;5.702;2023-03-16T09:06:42;8.20;99.90
76787;DHT22;65739;51.482;5.702;2023-03-16T09:09:08;8.20;99.90
76787;DHT22;65739;51.482;5.702;2023-03-16T09:11:34;8.20;99.90
76787;DHT22;65739;51.482;5.702;2023-03-16T09:14:00;8.20;99.90
76787;DHT22;65739;51.482;5.702;2023-03-16T09:16:26;8.20;99.90
76787;DHT22;65739;51.482;5.702;2023-03-16T09:18:52;8.30;99.90
76787;DHT22;65739;51.482;5.702;2023-03-16T09:21:18;8.30;99.90
76787;DHT22;65739;51.482;5.702;2023-03-16T09:23:44;8.40;99.90
76787;DHT22;65739;51.482;5.702;2023-03-16T09:26:11;8.60;99.90
76787;DHT22;65739;51.482;5.702;2023-03-16T09:28:38;8.80;99.90
76787;DHT22;65739;51.482;5.702;2023-03-16T09:31:05;8.90;99.90
76787;DHT22;65739;51.482;5.702;2023-03-16T09:33:32;9.00;99.90
76787;DHT22;65739;51.482;5.702;2023-03-16T09:35:59;8.80;99.90
76787;DHT22;65739;51.482;5.702;2023-03-16T09:38:25;9.10;99.90
76787;DHT22;65739;51.482;5.702;2023-03-16T09:43:36;9.40;99.90
76787;DHT22;65739;51.482;5.702;2023-03-16T09:48:51;9.00;99.90
76787;DHT22;65739;51.482;5.702;2023-03-16T09:54:11;9.50;99.90
76787;DHT22;65739;51.482;5.702;2023-03-16T09:56:41;9.60;99.90
76787;DHT22;65739;51.482;5.702;2023-03-16T09:59:12;9.80;99.90
76787;DHT22;65739;51.482;5.702;2023-03-16T10:02:03;10.00;99.90
76787;DHT22;65739;51.482;5.702;2023-03-16T10:04:40;10.40;99.90
76787;DHT22;65739;51.482;5.702;2023-03-16T10:09:55;10.40;99.90
76787;DHT22;65739;51.482;5.702;2023-03-16T10:12:25;10.30;99.90
76787;DHT22;65739;51.482;5.702;2023-03-16T10:15:07;10.50;99.90
76787;DHT22;65739;51.482;5.702;2023-03-16T10:20:17;10.90;99.90
76787;DHT22;65739;51.482;5.702;2023-03-16T10:22:45;11.00;99.90
76787;DHT22;65739;51.482;5.702;2023-03-16T10:25:42;10.90;99.90
76787;DHT22;65739;51.482;5.702;2023-03-16T10:28:17;11.00;99.90
76787;DHT22;65739;51.482;5.702;2023-03-16T10:30:43;11.00;99.90
76787;DHT22;65739;51.482;5.702;2023-03-16T10:33:33;11.20;99.90
76787;DHT22;65739;51.482;5.702;2023-03-16T10:36:36;11.60;99.90
76787;DHT22;65739;51.482;5.702;2023-03-16T10:39:06;11.50;99.90
76787;DHT22;65739;51.482;5.702;2023-03-16T10:41:37;11.80;99.90
76787;DHT22;65739;51.482;5.702;2023-03-16T10:44:23;11.90;99.90
76787;DHT22;65739;51.482;5.702;2023-03-16T10:46:57;12.00;99.90
76787;DHT22;65739;51.482;5.702;2023-03-16T10:49:39;12.00;99.90
76787;DHT22;65739;51.482;5.702;2023-03-16T10:54:59;11.80;99.90
76787;DHT22;65739;51.482;5.702;2023-03-16T10:57:30;11.70;99.90
76787;DHT22;65739;51.482;5.702;2023-03-16T11:00:10;11.90;99.90
76787;DHT22;65739;51.482;5.702;2023-03-16T11:02:46;12.20;99.90
76787;DHT22;65739;51.482;5.702;2023-03-16T11:07:56;12.20;99.90
76787;DHT22;65739;51.482;5.702;2023-03-16T11:10:32;12.50;99.90
76787;DHT22;65739;51.482;5.702;2023-03-16T11:13:07;12.50;99.90
76787;DHT22;65739;51.482;5.702;2023-03-16T11:15:49;12.70;99.90
76787;DHT22;65739;51.482;5.702;2023-03-16T11:18:45;13.00;99.90
76787;DHT22;65739;51.482;5.702;2023-03-16T11:21:16;13.10;99.90
76787;DHT22;65739;51.482;5.702;2023-03-16T11:23:47;13.00;99.90
76787;DHT22;65739;51.482;5.702;2023-03-16T11:26:23;12.70;99.90
76787;DHT22;65739;51.482;5.702;2023-03-16T11:29:06;12.80;99.90
76787;DHT22;65739;51.482;5.702;2023-03-16T11:34:26;12.60;99.90
76787;DHT22;65739;51.482;5.702;2023-03-16T11:37:02;12.80;99.90
76787;DHT22;65739;51.482;5.702;2023-03-16T11:39:36;13.10;99.90
76787;DHT22;65739;51.482;5.702;2023-03-16T11:42:29;12.90;99.90
76787;DHT22;65739;51.482;5.702;2023-03-16T11:45:07;12.90;99.90
76787;DHT22;65739;51.482;5.702;2023-03-16T11:50:36;13.10;99.90
76787;DHT22;65739;51.482;5.702;2023-03-16T11:53:49;13.20;99.90
76787;DHT22;65739;51.482;5.702;2023-03-16T11:56:38;13.20;99.90
76787;DHT22;65739;51.482;5.702;2023-03-16T12:12:48;13.50;99.90
76787;DHT22;65739;51.482;5.702;2023-03-16T12:15:34;13.30;99.90
76787;DHT22;65739;51.482;5.702;2023-03-16T12:20:54;13.60;99.90
76787;DHT22;65739;51.482;5.702;2023-03-16T12:23:50;14.10;99.90
76787;DHT22;65739;51.482;5.702;2023-03-16T12:26:18;14.20;99.90
76787;DHT22;65739;51.482;5.702;2023-03-16T12:28:44;14.30;99.90
76787;DHT22;65739;51.482;5.702;2023-03-16T12:31:18;14.40;99.90
76787;DHT22;65739;51.482;5.702;2023-03-16T12:36:56;14.70;99.90
76787;DHT22;65739;51.482;5.702;2023-03-16T12:39:43;15.00;99.90
76787;DHT22;65739;51.482;5.702;2023-03-16T12:45:06;15.20;99.90
76787;DHT22;65739;51.482;5.702;2023-03-16T12:47:42;15.40;99.90
76787;DHT22;65739;51.482;5.702;2023-03-16T12:50:13;15.30;99.90
76787;DHT22;65739;51.482;5.702;2023-03-16T12:52:44;15.40;99.90
76787;DHT22;65739;51.482;5.702;2023-03-16T12:55:19;15.30;99.90
76787;DHT22;65739;51.482;5.702;2023-03-16T12:57:47;15.30;99.90
76787;DHT22;65739;51.482;5.702;2023-03-16T13:00:14;15.30;99.90
76787;DHT22;65739;51.482;5.702;2023-03-16T13:02:43;15.40;99.90
76787;DHT22;65739;51.482;5.702;2023-03-16T13:05:15;16.00;99.90
76787;DHT22;65739;51.482;5.702;2023-03-16T13:07:50;16.00;99.90
76787;DHT22;65739;51.482;5.702;2023-03-16T13:10:18;16.20;99.90
76787;DHT22;65739;51.482;5.702;2023-03-16T13:12:46;15.70;99.90
76787;DHT22;65739;51.482;5.702;2023-03-16T13:17:49;15.90;99.90
76787;DHT22;65739;51.482;5.702;2023-03-16T13:20:28;15.80;99.90
76787;DHT22;65739;51.482;5.702;2023-03-16T13:23:19;15.80;99.90
76787;DHT22;65739;51.482;5.702;2023-03-16T13:26:12;15.60;99.90
76787;DHT22;65739;51.482;5.702;2023-03-16T13:28:38;15.60;99.90
76787;DHT22;65739;51.482;5.702;2023-03-16T13:31:18;15.90;99.90
76787;DHT22;65739;51.482;5.702;2023-03-16T13:33:45;15.90;99.90
76787;DHT22;65739;51.482;5.702;2023-03-16T13:36:12;15.90;99.90
76787;DHT22;65739;51.482;5.702;2023-03-16T13:38:38;16.10;99.90
76787;DHT22;65739;51.482;5.702;2023-03-16T13:41:09;16.00;99.90
76787;DHT22;65739;51.482;5.702;2023-03-16T13:43:38;15.70;99.90
76787;DHT22;65739;51.482;5.702;2023-03-16T13:46:17;16.00;99.90
76787;DHT22;65739;51.482;5.702;2023-03-16T13:48:45;16.10;99.90
76787;DHT22;65739;51.482;5.702;2023-03-16T13:51:19;16.20;99.90
76787;DHT22;65739;51.482;5.702;2023-03-16T13:53:46;16.40;99.90
76787;DHT22;65739;51.482;5.702;2023-03-16T13:56:14;16.20;99.90
76787;DHT22;65739;51.482;5.702;2023-03-16T13:58:44;16.20;99.90
76787;DHT22;65739;51.482;5.702;2023-03-16T14:01:23;15.80;99.90
76787;DHT22;65739;51.482;5.702;2023-03-16T14:03:49;15.80;99.90
76787;DHT22;65739;51.482;5.702;2023-03-16T14:06:35;15.80;99.90
76787;DHT22;65739;51.482;5.702;2023-03-16T14:09:04;15.80;99.90
76787;DHT22;65739;51.482;5.702;2023-03-16T14:11:30;16.00;99.90
76787;DHT22;65739;51.482;5.702;2023-03-16T14:13:58;15.80;99.90
76787;DHT22;65739;51.482;5.702;2023-03-16T14:16:27;15.90;99.90
76787;DHT22;65739;51.482;5.702;2023-03-16T14:19:00;15.80;99.90
76787;DHT22;65739;51.482;5.702;2023-03-16T14:21:28;15.70;99.90
76787;DHT22;65739;51.482;5.702;2023-03-16T14:24:02;15.80;99.90
76787;DHT22;65739;51.482;5.702;2023-03-16T14:26:40;15.60;99.90
76787;DHT22;65739;51.482;5.702;2023-03-16T14:29:16;15.60;99.90
76787;DHT22;65739;51.482;5.702;2023-03-16T14:31:42;15.70;99.90
76787;DHT22;65739;51.482;5.702;2023-03-16T14:34:30;15.90;99.90
76787;DHT22;65739;51.482;5.702;2023-03-16T14:37:11;15.70;99.90
76787;DHT22;65739;51.482;5.702;2023-03-16T14:39:36;15.70;99.90
76787;DHT22;65739;51.482;5.702;2023-03-16T14:42:27;15.70;99.90
76787;DHT22;65739;51.482;5.702;2023-03-16T14:44:53;15.70;99.90
76787;DHT22;65739;51.482;5.702;2023-03-16T14:47:24;15.70;99.90
76787;DHT22;65739;51.482;5.702;2023-03-16T14:49:50;15.80;99.90
76787;DHT22;65739;51.482;5.702;2023-03-16T14:52:24;15.70;99.90
76787;DHT22;65739;51.482;5.702;2023-03-16T14:54:51;15.70;99.90
76787;DHT22;65739;51.482;5.702;2023-03-16T14:57:18;15.80;99.90
76787;DHT22;65739;51.482;5.702;2023-03-16T14:59:44;15.90;99.90
76787;DHT22;65739;51.482;5.702;2023-03-16T15:02:30;15.80;99.90
76787;DHT22;65739;51.482;5.702;2023-03-16T15:04:57;15.50;99.90
76787;DHT22;65739;51.482;5.702;2023-03-16T15:07:32;15.50;99.90
76787;DHT22;65739;51.482;5.702;2023-03-16T15:12:40;15.70;99.90
76787;DHT22;65739;51.482;5.702;2023-03-16T15:15:16;15.70;99.90
76787;DHT22;65739;51.482;5.702;2023-03-16T15:17:43;15.70;99.90
76787;DHT22;65739;51.482;5.702;2023-03-16T15:20:15;15.80;99.90
76787;DHT22;65739;51.482;5.702;2023-03-16T15:22:42;15.90;99.90
76787;DHT22;65739;51.482;5.702;2023-03-16T15:25:30;15.70;99.90
76787;DHT22;65739;51.482;5.702;2023-03-16T15:28:02;15.70;99.90
76787;DHT22;65739;51.482;5.702;2023-03-16T15:30:29;15.80;99.90
76787;DHT22;65739;51.482;5.702;2023-03-16T15:32:55;15.70;99.90
76787;DHT22;65739;51.482;5.702;2023-03-16T15:35:21;15.60;99.90
76787;DHT22;65739;51.482;5.702;2023-03-16T15:37:46;15.40;99.90
76787;DHT22;65739;51.482;5.702;2023-03-16T15:40:21;15.20;99.90
76787;DHT22;65739;51.482;5.702;2023-03-16T15:42:47;15.20;99.90
76787;DHT22;65739;51.482;5.702;2023-03-16T15:45:16;15.10;99.90
76787;DHT22;65739;51.482;5.702;2023-03-16T15:47:43;15.10;99.90
76787;DHT22;65739;51.482;5.702;2023-03-16T15:50:11;14.90;99.90
76787;DHT22;65739;51.482;5.702;2023-03-16T15:52:38;14.80;99.90
76787;DHT22;65739;51.482;5.702;2023-03-16T15:55:05;14.70;99.90
76787;DHT22;65739;51.482;5.702;2023-03-16T15:57:33;14.60;99.90
76787;DHT22;65739;51.482;5.702;2023-03-16T16:00:00;14.60;99.90
76787;DHT22;65739;51.482;5.702;2023-03-16T16:02:28;14.70;99.90
76787;DHT22;65739;51.482;5.702;2023-03-16T16:04:54;15.00;99.90
76787;DHT22;65739;51.482;5.702;2023-03-16T16:07:21;15.20;99.90
76787;DHT22;65739;51.482;5.702;2023-03-16T16:09:47;15.50;99.90
76787;DHT22;65739;51.482;5.702;2023-03-16T16:12:13;15.20;99.90
76787;DHT22;65739;51.482;5.702;2023-03-16T16:14:39;15.20;99.90
76787;DHT22;65739;51.482;5.702;2023-03-16T16:17:13;15.10;99.90
76787;DHT22;65739;51.482;5.702;2023-03-16T16:19:52;15.10;99.90
76787;DHT22;65739;51.482;5.702;2023-03-16T16:22:18;15.10;99.90
76787;DHT22;65739;51.482;5.702;2023-03-16T16:24:44;14.80;99.90
76787;DHT22;65739;51.482;5.702;2023-03-16T16:27:11;14.50;99.90
76787;DHT22;65739;51.482;5.702;2023-03-16T16:29:37;14.40;99.90
76787;DHT22;65739;51.482;5.702;2023-03-16T16:32:03;14.30;99.90
76787;DHT22;65739;51.482;5.702;2023-03-16T16:34:29;14.10;99.90
76787;DHT22;65739;51.482;5.702;2023-03-16T16:36:55;14.20;99.90
76787;DHT22;65739;51.482;5.702;2023-03-16T16:39:22;14.10;99.90
76787;DHT22;65739;51.482;5.702;2023-03-16T16:41:49;14.40;99.90
76787;DHT22;65739;51.482;5.702;2023-03-16T16:44:28;14.50;99.90
76787;DHT22;65739;51.482;5.702;2023-03-16T16:46:54;14.80;99.90
76787;DHT22;65739;51.482;5.702;2023-03-16T16:49:28;15.10;99.90
76787;DHT22;65739;51.482;5.702;2023-03-16T16:51:55;15.10;99.90
76787;DHT22;65739;51.482;5.702;2023-03-16T16:54:23;15.20;99.90
76787;DHT22;65739;51.482;5.702;2023-03-16T16:56:51;15.10;99.90
76787;DHT22;65739;51.482;5.702;2023-03-16T16:59:19;15.00;99.90
76787;DHT22;65739;51.482;5.702;2023-03-16T17:01:46;14.70;99.90